Time;durP1;ratioP1;P1;durP2;ratioP2;P2;SDS_P1;SDS_P2;PMS_P1;PMS_P2;Temp;Humidity;BMP_temperature;BMP_pressure;BME280_temperature;BME280_humidity;BME280_pressure;Samples;Min_cycle;Max_cycle;Signal;HPM_P1;HPM_P2
2021/12/07 00:01:50;;;;;;;23.70;13.43;;;;;;;-0.52;100.00;100610.75;4886971;29;20498;-86
2021/12/07 00:04:18;;;;;;;26.97;14.13;;;;;;;-0.68;100.00;100605.19;4888416;29;20116;-86
2021/12/07 00:06:45;;;;;;;25.37;12.53;;;;;;;-0.68;100.00;100600.00;4879262;29;20120;-85
2021/12/07 00:09:15;;;;;;;26.27;13.27;;;;;;;-0.62;100.00;100601.88;4881659;29;20494;-86
2021/12/07 00:11:43;;;;;;;29.47;15.00;;;;;;;-0.61;100.00;100595.84;4887247;29;20051;-86
2021/12/07 00:14:14;;;;;;;28.90;14.80;;;;;;;-0.60;100.00;100601.06;4884752;29;20131;-86
2021/12/07 00:16:47;;;;;;;30.20;14.93;;;;;;;-0.55;100.00;100602.91;4880098;29;20130;-86
2021/12/07 00:19:18;;;;;;;25.73;15.97;;;;;;;-0.54;100.00;100594.28;4891492;29;20079;-86
2021/12/07 00:21:47;;;;;;;30.90;16.07;;;;;;;-0.44;100.00;100597.13;4898027;29;20603;-86
2021/12/07 00:24:14;;;;;;;27.70;15.23;;;;;;;-0.51;100.00;100594.34;4896756;29;20418;-86
2021/12/07 00:26:42;;;;;;;29.57;15.73;;;;;;;-0.52;100.00;100588.28;4902326;29;20068;-86
2021/12/07 00:29:10;;;;;;;25.83;14.03;;;;;;;-0.44;100.00;100588.47;4898064;29;20131;-86
2021/12/07 00:31:43;;;;;;;26.27;14.13;;;;;;;-0.54;100.00;100573.53;4897915;29;20040;-85
2021/12/07 00:34:19;;;;;;;28.27;15.80;;;;;;;-0.46;100.00;100575.44;4883619;29;20093;-86
2021/12/07 00:36:47;;;;;;;29.13;14.83;;;;;;;-0.51;100.00;100573.59;4884613;29;20052;-85
2021/12/07 00:39:19;;;;;;;28.43;14.50;;;;;;;-0.50;100.00;100562.38;4865550;29;20505;-85
2021/12/07 00:41:48;;;;;;;26.23;14.67;;;;;;;-0.43;100.00;100561.66;4912085;29;20044;-86
2021/12/07 00:44:15;;;;;;;33.07;15.93;;;;;;;-0.34;100.00;100569.66;4915583;29;20195;-85
2021/12/07 00:46:43;;;;;;;30.97;15.37;;;;;;;-0.39;100.00;100560.91;4899988;29;20051;-85
2021/12/07 00:49:10;;;;;;;27.57;14.63;;;;;;;-0.42;100.00;100563.41;4869122;29;20139;-86
2021/12/07 00:51:37;;;;;;;30.17;16.67;;;;;;;-0.42;100.00;100553.03;4896483;29;20044;-87
2021/12/07 00:54:05;;;;;;;26.53;15.23;;;;;;;-0.40;100.00;100557.44;4898152;29;20040;-86
2021/12/07 00:56:38;;;;;;;32.57;16.70;;;;;;;-0.43;100.00;100559.06;4885662;29;20052;-86
2021/12/07 00:59:05;;;;;;;26.33;14.67;;;;;;;-0.48;100.00;100550.31;4877865;29;20048;-85
2021/12/07 01:01:33;;;;;;;26.83;15.17;;;;;;;-0.47;100.00;100546.88;4873276;29;20115;-86
2021/12/07 01:04:00;;;;;;;29.07;15.57;;;;;;;-0.43;100.00;100544.38;4884666;29;20055;-87
2021/12/07 01:06:34;;;;;;;27.13;15.00;;;;;;;-0.50;100.00;100539.91;4871464;29;20055;-86
2021/12/07 01:09:18;;;;;;;;;;;;;;;-0.53;100.00;100542.41;4903583;29;20045;-86
2021/12/07 01:25:39;;;;;;;27.50;14.77;;;;;;;-0.59;100.00;100532.78;4884846;29;20051;-87
2021/12/07 01:28:20;;;;;;;26.17;15.07;;;;;;;-0.65;100.00;100534.38;4865706;29;20060;-86
2021/12/07 01:41:30;;;;;;;27.90;14.37;;;;;;;-0.70;100.00;100529.06;4897497;29;20521;-84
2021/12/07 01:46:44;;;;;;;30.63;15.27;;;;;;;-0.73;100.00;100520.34;4898179;29;20537;-87
2021/12/07 02:00:13;;;;;;;32.37;16.00;;;;;;;-0.72;100.00;100486.66;4883965;29;20054;-87
2021/12/07 02:02:41;;;;;;;30.57;15.83;;;;;;;-0.65;100.00;100478.16;4880781;29;20056;-87
2021/12/07 02:05:09;;;;;;;33.30;15.47;;;;;;;-0.71;100.00;100478.03;4907270;29;20096;-86
2021/12/07 02:07:36;;;;;;;28.90;15.13;;;;;;;-0.65;100.00;100477.28;4881842;29;20044;-85
2021/12/07 02:10:10;;;;;;;34.27;18.03;;;;;;;-0.55;100.00;100465.38;4885175;29;20055;-86
2021/12/07 02:12:45;;;;;;;27.65;15.57;;;;;;;-0.69;100.00;100471.16;4904287;29;20040;-85
2021/12/07 02:15:18;;;;;;;28.40;16.33;;;;;;;-0.73;100.00;100465.88;4889814;29;20068;-86
2021/12/07 02:17:46;;;;;;;32.53;15.67;;;;;;;-0.72;100.00;100457.25;4873577;29;20055;-85
2021/12/07 02:20:14;;;;;;;30.87;16.70;;;;;;;-0.81;100.00;100454.47;4867321;29;20044;-88
2021/12/07 02:22:40;;;;;;;28.53;16.47;;;;;;;-0.80;100.00;100454.47;4900718;29;20044;-85
2021/12/07 02:25:09;;;;;;;32.17;16.07;;;;;;;-0.80;100.00;100449.28;4881502;29;20051;-85
2021/12/07 02:27:37;;;;;;;32.67;16.83;;;;;;;-0.81;100.00;100447.53;4886944;29;20159;-85
2021/12/07 02:30:07;;;;;;;30.20;15.33;;;;;;;-0.88;100.00;100446.53;4899258;29;20048;-86
2021/12/07 02:32:34;;;;;;;32.97;15.60;;;;;;;-0.85;100.00;100448.31;4880751;29;20043;-86
2021/12/07 02:35:01;;;;;;;31.03;15.83;;;;;;;-0.79;100.00;100444.97;4902776;29;20043;-85
2021/12/07 02:37:30;;;;;;;27.83;14.43;;;;;;;-0.82;100.00;100440.59;4906117;29;20050;-85
2021/12/07 02:39:58;;;;;;;33.13;16.93;;;;;;;-0.82;100.00;100443.22;4896540;29;20418;-85
2021/12/07 02:42:26;;;;;;;30.40;15.77;;;;;;;-0.82;100.00;100445.81;4901423;29;20052;-84
2021/12/07 02:44:53;;;;;;;31.03;16.50;;;;;;;-0.88;100.00;100448.25;4908723;29;20051;-85
2021/12/07 02:47:20;;;;;;;31.07;15.87;;;;;;;-0.91;100.00;100450.78;4875581;29;20036;-86
2021/12/07 02:49:47;;;;;;;29.50;17.00;;;;;;;-0.79;100.00;100451.03;4872519;29;20044;-85
2021/12/07 02:52:14;;;;;;;29.80;16.07;;;;;;;-0.87;100.00;100450.00;4890263;29;20111;-85
2021/12/07 02:54:49;;;;;;;29.53;16.10;;;;;;;-0.90;100.00;100456.00;4891200;29;20054;-85
2021/12/07 02:57:21;;;;;;;28.63;16.17;;;;;;;-0.98;100.00;100451.47;4883500;29;20044;-85
2021/12/07 02:59:57;;;;;;;31.03;16.57;;;;;;;-1.05;100.00;100457.38;4899426;29;20063;-86
2021/12/07 03:02:25;;;;;;;29.90;15.47;;;;;;;-1.04;100.00;100451.34;4883849;29;20076;-85
2021/12/07 03:05:03;;;;;;;28.87;15.53;;;;;;;-1.03;100.00;100456.56;4911917;29;20040;-85
2021/12/07 03:08:03;;;;;;;29.57;15.43;;;;;;;-1.21;100.00;100462.19;4872822;29;20465;-85
2021/12/07 03:26:48;;;;;;;28.07;14.57;;;;;;;-1.64;100.00;100467.16;4915154;29;20048;-85
2021/12/07 03:29:15;;;;;;;28.40;15.30;;;;;;;-1.71;100.00;100467.00;4882631;29;20188;-86
2021/12/07 03:31:42;;;;;;;26.97;14.10;;;;;;;-1.63;100.00;100466.31;4885391;29;20048;-86
2021/12/07 03:34:08;;;;;;;26.80;14.37;;;;;;;-1.85;100.00;100483.91;4872111;29;20048;-85
2021/12/07 03:36:35;;;;;;;25.47;14.60;;;;;;;-1.82;100.00;100483.97;4903510;29;20040;-86
2021/12/07 03:39:05;;;;;;;27.70;14.83;;;;;;;-1.78;100.00;100484.91;4867093;29;20052;-86
2021/12/07 03:41:31;;;;;;;25.77;15.40;;;;;;;-1.84;100.00;100480.47;4906562;29;20055;-83
2021/12/07 03:43:58;;;;;;;30.57;13.23;;;;;;;-1.74;100.00;100489.34;4913214;29;20048;-85
2021/12/07 03:46:25;;;;;;;26.17;13.40;;;;;;;-1.91;100.00;100483.72;4916912;29;20040;-85
2021/12/07 03:48:52;;;;;;;28.10;14.47;;;;;;;-2.00;100.00;100491.25;4879488;29;20052;-86
2021/12/07 03:51:18;;;;;;;26.60;15.13;;;;;;;-1.94;100.00;100488.81;4883455;29;20073;-86
2021/12/07 03:53:45;;;;;;;25.90;14.93;;;;;;;-2.00;100.00;100488.66;4893788;29;20044;-85
2021/12/07 03:56:13;;;;;;;26.27;14.40;;;;;;;-2.13;100.00;100492.63;4892887;29;20096;-86
2021/12/07 03:58:41;;;;;;;25.30;14.13;;;;;;;-2.13;100.00;100490.03;4895094;29;21266;-86
2021/12/07 04:01:11;;;;;;;26.47;14.03;;;;;;;-2.08;100.00;100495.34;4881394;29;20044;-87
2021/12/07 04:03:40;;;;;;;30.70;14.87;;;;;;;-2.05;100.00;100490.25;4896687;29;20052;-86
2021/12/07 04:06:07;;;;;;;26.73;14.50;;;;;;;-2.15;100.00;100493.41;4895145;29;20052;-87
2021/12/07 04:08:41;;;;;;;29.07;14.37;;;;;;;-2.10;100.00;100487.53;4889940;29;20044;-85
2021/12/07 04:11:08;;;;;;;24.98;13.63;;;;;;;-2.21;100.00;100483.75;4881514;29;20076;-86
2021/12/07 04:13:35;;;;;;;28.37;15.40;;;;;;;-2.22;100.00;100496.66;4867385;29;20066;-86
2021/12/07 04:16:08;;;;;;;29.93;14.13;;;;;;;-2.35;100.00;100498.91;4896993;29;20068;-85
2021/12/07 04:18:35;;;;;;;24.63;15.00;;;;;;;-2.27;100.00;100494.84;4901460;29;20119;-85
2021/12/07 04:21:03;;;;;;;26.87;14.63;;;;;;;-2.30;100.00;100504.19;4894914;29;20048;-86
2021/12/07 04:23:31;;;;;;;27.97;14.27;;;;;;;-2.30;100.00;100515.44;4888463;29;20052;-87
2021/12/07 04:26:00;;;;;;;25.27;13.73;;;;;;;-2.36;100.00;100499.72;4888489;29;20054;-85
2021/12/07 04:28:26;;;;;;;24.13;14.30;;;;;;;-2.39;100.00;100503.94;4868091;29;20040;-87
2021/12/07 04:30:53;;;;;;;28.03;15.23;;;;;;;-2.43;100.00;100512.47;4888002;29;20052;-86
2021/12/07 04:33:20;;;;;;;29.13;14.73;;;;;;;-2.34;100.00;100507.56;4898559;29;20055;-87
2021/12/07 04:35:48;;;;;;;27.37;14.17;;;;;;;-2.44;100.00;100505.50;4867890;29;20100;-86
2021/12/07 04:38:17;;;;;;;26.37;13.37;;;;;;;-2.52;100.00;100510.47;4893602;29;20046;-86
2021/12/07 04:40:44;;;;;;;31.87;15.30;;;;;;;-2.44;100.00;100502.91;4899239;29;20063;-86
2021/12/07 04:43:11;;;;;;;29.40;14.07;;;;;;;-2.28;100.00;100498.22;4872105;29;20048;-86
2021/12/07 04:59:00;;;;;;;29.53;15.47;;;;;;;-2.11;100.00;100510.78;4912225;29;20103;-87
2021/12/07 05:01:27;;;;;;;32.40;16.03;;;;;;;-2.13;100.00;100515.03;4948910;23;20442;-79
2021/12/07 05:03:57;;;;;;;32.20;18.67;;;;;;;-2.02;100.00;100513.59;4879801;29;20079;-79
2021/12/07 05:06:28;;;;;;;52.10;28.03;;;;;;;-2.00;100.00;100523.19;4879794;29;20077;-79
2021/12/07 05:09:05;;;;;;;30.47;16.97;;;;;;;-1.86;100.00;100514.91;4877296;29;20044;-79
2021/12/07 05:14:25;;;;;;;35.57;19.40;;;;;;;-1.86;100.00;100522.69;4898055;29;20055;-79
2021/12/07 05:38:35;;;;;;;30.20;19.30;;;;;;;-1.62;100.00;100492.25;4908028;29;20138;-80
2021/12/07 05:41:06;;;;;;;35.43;21.83;;;;;;;-1.67;100.00;100482.63;4903594;29;20048;-80
2021/12/07 05:43:33;;;;;;;32.00;18.33;;;;;;;-1.73;100.00;100493.69;4901480;29;20044;-80
2021/12/07 05:46:01;;;;;;;31.67;18.17;;;;;;;-1.67;100.00;100488.69;4889893;29;20770;-79
2021/12/07 05:48:28;;;;;;;31.27;17.00;;;;;;;-1.72;100.00;100498.91;4893864;29;20036;-80
2021/12/07 05:50:55;;;;;;;35.90;18.47;;;;;;;-1.73;100.00;100489.41;4917700;29;20040;-80
2021/12/07 05:53:21;;;;;;;37.50;21.03;;;;;;;-1.76;100.00;100491.91;4903784;29;20044;-80
2021/12/07 05:55:48;;;;;;;31.27;16.30;;;;;;;-1.83;100.00;100502.94;4902922;29;20127;-80
2021/12/07 05:58:15;;;;;;;33.33;18.40;;;;;;;-1.84;100.00;100510.69;4905600;29;20044;-80
2021/12/07 06:00:45;;;;;;;31.50;15.93;;;;;;;-1.79;100.00;100504.75;4901480;29;20070;-80
2021/12/07 06:03:13;;;;;;;29.60;15.00;;;;;;;-1.87;100.00;100521.81;4888843;29;20058;-80
2021/12/07 06:05:41;;;;;;;32.50;18.70;;;;;;;-1.96;100.00;100520.69;4900065;29;20052;-80
2021/12/07 06:08:08;;;;;;;29.33;15.53;;;;;;;-1.92;100.00;100518.22;4917744;29;20051;-80
2021/12/07 06:10:35;;;;;;;31.67;17.17;;;;;;;-2.03;100.00;100520.50;4910296;29;20048;-80
2021/12/07 06:13:03;;;;;;;25.43;15.93;;;;;;;-2.02;100.00;100521.38;4901361;29;20103;-80
2021/12/07 06:15:33;;;;;;;27.67;15.37;;;;;;;-2.10;100.00;100528.03;4898737;29;20108;-80
2021/12/07 06:18:00;;;;;;;29.50;14.83;;;;;;;-2.23;100.00;100534.59;4885144;29;20045;-79
2021/12/07 06:20:27;;;;;;;30.43;15.33;;;;;;;-2.21;100.00;100545.88;4908775;29;20043;-80
2021/12/07 06:23:11;;;;;;;30.87;16.70;;;;;;;-2.14;100.00;100549.50;4901849;29;20044;-79
2021/12/07 06:25:38;;;;;;;32.10;16.83;;;;;;;-2.19;100.00;100549.38;4901032;29;20597;-79
2021/12/07 06:28:05;;;;;;;29.27;16.27;;;;;;;-2.02;100.00;100544.66;4885769;29;20044;-79
2021/12/07 06:30:32;;;;;;;29.47;16.50;;;;;;;-2.04;100.00;100549.81;4906120;29;20072;-79
2021/12/07 06:32:58;;;;;;;32.67;17.33;;;;;;;-2.02;100.00;100536.91;4887862;29;20074;-79
2021/12/07 06:35:25;;;;;;;31.57;16.23;;;;;;;-1.88;100.00;100550.25;4942920;29;20047;-82
2021/12/07 06:37:52;;;;;;;32.00;16.87;;;;;;;-1.84;100.00;100541.75;4922559;29;20048;-79
2021/12/07 06:40:22;;;;;;;38.07;19.60;;;;;;;-1.89;100.00;100539.00;4909297;29;20043;-78
2021/12/07 06:42:49;;;;;;;44.60;24.80;;;;;;;-1.87;100.00;100541.63;4904165;29;20044;-79
2021/12/07 06:45:16;;;;;;;33.50;20.13;;;;;;;-1.80;100.00;100548.75;4906117;29;20044;-79
2021/12/07 06:47:42;;;;;;;48.97;28.87;;;;;;;-1.78;100.00;100550.53;4896767;29;20485;-79
2021/12/07 06:50:10;;;;;;;34.37;20.60;;;;;;;-1.80;100.00;100553.94;4907550;29;20043;-79
2021/12/07 06:52:37;;;;;;;35.87;20.60;;;;;;;-1.70;100.00;100561.09;4887600;29;20172;-78
2021/12/07 06:55:04;;;;;;;33.40;17.40;;;;;;;-1.74;100.00;100564.47;4905968;29;20048;-79
2021/12/07 06:57:31;;;;;;;36.73;23.13;;;;;;;-1.74;100.00;100561.88;4887786;29;20051;-78
2021/12/07 06:59:58;;;;;;;36.93;20.20;;;;;;;-1.78;100.00;100563.47;4915466;29;20048;-78
2021/12/07 07:02:24;;;;;;;34.60;21.80;;;;;;;-1.72;100.00;100567.97;4913506;29;20051;-79
2021/12/07 07:04:52;;;;;;;35.90;17.27;;;;;;;-1.71;100.00;100568.00;4912466;29;20047;-79
2021/12/07 07:07:22;;;;;;;27.23;16.63;;;;;;;-1.65;100.00;100575.06;4910632;29;20048;-78
2021/12/07 07:09:49;;;;;;;32.97;17.03;;;;;;;-1.81;100.00;100573.78;4898717;29;20052;-78
2021/12/07 07:12:16;;;;;;;32.43;18.43;;;;;;;-1.78;100.00;100578.16;4899606;29;20056;-78
2021/12/07 07:14:43;;;;;;;33.93;17.20;;;;;;;-1.63;100.00;100577.69;4900302;29;20056;-78
2021/12/07 07:17:09;;;;;;;32.17;16.70;;;;;;;-1.64;100.00;100581.13;4888629;29;20075;-78
2021/12/07 07:19:42;;;;;;;30.50;15.97;;;;;;;-1.68;100.00;100584.44;4899618;29;20071;-79
2021/12/07 07:22:08;;;;;;;33.83;16.77;;;;;;;-1.66;100.00;100588.00;4905211;29;20043;-80
2021/12/07 07:24:35;;;;;;;36.27;17.93;;;;;;;-1.64;100.00;100591.50;4908662;29;20040;-80
2021/12/07 07:27:02;;;;;;;30.90;16.50;;;;;;;-1.70;100.00;100593.06;4907605;29;20395;-80
2021/12/07 07:29:29;;;;;;;31.87;16.83;;;;;;;-1.70;100.00;100587.88;4907659;29;20052;-81
2021/12/07 07:31:56;;;;;;;33.37;18.73;;;;;;;-1.57;100.00;100596.88;4906112;29;20060;-81
2021/12/07 07:34:23;;;;;;;37.20;17.27;;;;;;;-1.58;100.00;100591.66;4896422;29;20055;-81
2021/12/07 07:36:49;;;;;;;33.53;16.63;;;;;;;-1.57;100.00;100596.88;4927497;29;20048;-82
2021/12/07 07:39:16;;;;;;;30.73;15.70;;;;;;;-1.54;100.00;100593.50;4898423;29;20071;-81
2021/12/07 07:41:43;;;;;;;31.30;16.77;;;;;;;-1.67;100.00;100586.22;4934009;29;20051;-81
2021/12/07 07:44:09;;;;;;;31.03;17.87;;;;;;;-1.62;100.00;100588.09;4887151;29;20040;-81
2021/12/07 07:46:36;;;;;;;35.43;20.63;;;;;;;-1.55;100.00;100587.44;4908452;29;20123;-81
2021/12/07 07:49:04;;;;;;;33.57;19.27;;;;;;;-1.50;100.00;100591.03;4909797;29;20213;-81
2021/12/07 07:51:32;;;;;;;27.47;15.20;;;;;;;-1.52;100.00;100603.03;4896304;29;20649;-83
2021/12/07 07:54:00;;;;;;;32.13;17.10;;;;;;;-1.52;100.00;100597.88;4882786;29;20051;-80
2021/12/07 07:56:27;;;;;;;30.07;17.70;;;;;;;-1.44;100.00;100601.53;4900037;29;20052;-80
2021/12/07 07:58:54;;;;;;;28.90;17.40;;;;;;;-1.43;100.00;100594.66;4920319;29;20048;-81
2021/12/07 08:01:23;;;;;;;31.70;16.03;;;;;;;-1.40;100.00;100593.88;4905038;29;20047;-81
2021/12/07 08:03:51;;;;;;;32.17;17.00;;;;;;;-1.42;100.00;100599.03;4881418;29;20044;-81
2021/12/07 08:06:18;;;;;;;32.13;16.13;;;;;;;-1.35;100.00;100606.09;4896334;29;20043;-81
2021/12/07 08:08:44;;;;;;;33.10;18.13;;;;;;;-1.28;100.00;100605.41;4914058;29;20039;-81
2021/12/07 08:11:11;;;;;;;34.50;17.43;;;;;;;-1.26;100.00;100605.44;4910908;29;20088;-80
2021/12/07 08:13:38;;;;;;;31.57;17.10;;;;;;;-1.33;100.00;100609.63;4902262;29;20044;-81
2021/12/07 08:16:05;;;;;;;28.10;16.40;;;;;;;-1.40;100.00;100605.09;4908767;29;20107;-80
2021/12/07 08:18:32;;;;;;;31.90;16.57;;;;;;;-1.19;100.00;100604.78;4886330;29;20052;-81
2021/12/07 08:20:59;;;;;;;30.83;16.80;;;;;;;-1.27;100.00;100601.09;4924689;29;20062;-80
2021/12/07 08:23:26;;;;;;;31.97;17.77;;;;;;;-1.27;100.00;100614.06;4893147;29;22126;-79
2021/12/07 08:25:52;;;;;;;26.73;16.27;;;;;;;-1.29;100.00;100614.03;4893758;29;20056;-80
2021/12/07 08:28:19;;;;;;;26.40;16.17;;;;;;;-1.32;100.00;100616.56;4912834;29;20040;-81
2021/12/07 08:30:48;;;;;;;29.73;16.73;;;;;;;-1.27;100.00;100614.06;4901360;29;20047;-79
2021/12/07 08:33:15;;;;;;;32.23;15.87;;;;;;;-1.29;100.00;100616.63;4892856;29;20494;-81
2021/12/07 08:35:42;;;;;;;31.33;16.17;;;;;;;-1.21;100.00;100619.44;4884804;29;20043;-79
2021/12/07 08:38:08;;;;;;;30.23;16.13;;;;;;;-1.23;100.00;100618.50;4893144;29;20050;-81
2021/12/07 08:40:39;;;;;;;31.27;17.63;;;;;;;-1.28;100.00;100620.09;4906731;29;20063;-79
2021/12/07 08:43:09;;;;;;;32.30;17.10;;;;;;;-1.15;100.00;100620.47;4901214;29;20048;-80
2021/12/07 08:45:36;;;;;;;30.53;16.33;;;;;;;-1.18;100.00;100610.03;4899375;29;20606;-80
2021/12/07 08:48:03;;;;;;;35.67;17.50;;;;;;;-1.13;100.00;100616.19;4882943;29;20043;-79
2021/12/07 08:50:30;;;;;;;30.37;16.30;;;;;;;-1.07;100.00;100609.44;4865444;29;20047;-80
2021/12/07 08:53:03;;;;;;;32.47;16.83;;;;;;;-1.07;100.00;100614.63;4884272;29;20112;-80
2021/12/07 09:01:04;;;;;;;29.60;16.87;;;;;;;-1.20;100.00;100613.41;4909429;29;20430;-79
2021/12/07 09:03:31;;;;;;;33.97;17.47;;;;;;;-1.22;100.00;100607.31;4910789;29;20127;-79
2021/12/07 09:05:58;;;;;;;29.53;16.70;;;;;;;-1.13;100.00;100611.00;4905248;29;20531;-79
2021/12/07 09:08:25;;;;;;;30.03;18.00;;;;;;;-1.09;100.00;100614.56;4909081;29;20040;-80
2021/12/07 09:10:52;;;;;;;30.00;17.43;;;;;;;-1.07;100.00;100618.06;4884802;29;20080;-80
2021/12/07 09:13:20;;;;;;;30.40;17.30;;;;;;;-1.04;100.00;100612.09;4896296;29;20040;-79
2021/12/07 09:15:47;;;;;;;31.37;17.70;;;;;;;-1.05;100.00;100605.16;4897824;29;20044;-80
2021/12/07 09:18:13;;;;;;;29.37;16.03;;;;;;;-1.23;100.00;100609.03;4899507;29;20032;-80
2021/12/07 09:20:40;;;;;;;33.07;18.03;;;;;;;-1.18;100.00;100612.63;4865749;29;20099;-81
2021/12/07 09:23:07;;;;;;;32.73;17.10;;;;;;;-1.20;100.00;100613.41;4898406;29;20048;-80
2021/12/07 09:25:34;;;;;;;32.17;16.13;;;;;;;-1.32;100.00;100602.72;4888933;29;20040;-80
2021/12/07 09:28:00;;;;;;;29.37;16.57;;;;;;;-1.18;100.00;100603.94;4913588;29;20044;-80
2021/12/07 09:30:27;;;;;;;36.13;19.10;;;;;;;-1.12;100.00;100604.09;4897716;29;20056;-81
2021/12/07 09:32:54;;;;;;;35.23;18.20;;;;;;;-1.10;100.00;100611.91;4875608;29;20048;-79
2021/12/07 09:35:21;;;;;;;37.70;19.03;;;;;;;-1.01;100.00;100612.16;4920369;29;20040;-81
2021/12/07 09:37:50;;;;;;;40.53;21.63;;;;;;;-1.03;100.00;100606.94;4897230;29;20051;-80
2021/12/07 09:40:19;;;;;;;36.80;20.57;;;;;;;-0.98;100.00;100601.88;4877860;29;20440;-81
2021/12/07 09:42:46;;;;;;;38.50;19.33;;;;;;;-1.00;100.00;100599.25;4905283;29;20410;-79
2021/12/07 09:45:16;;;;;;;29.63;15.47;;;;;;;-1.04;100.00;100604.31;4900909;29;20143;-79
2021/12/07 09:47:43;;;;;;;37.17;17.03;;;;;;;-1.01;100.00;100609.56;4909253;29;20044;-80
2021/12/07 09:50:12;;;;;;;35.43;17.20;;;;;;;-0.96;100.00;100616.63;4915019;29;20047;-80
2021/12/07 09:52:39;;;;;;;33.33;17.13;;;;;;;-0.82;100.00;100616.09;4918206;29;20120;-79
2021/12/07 09:55:06;;;;;;;31.50;16.80;;;;;;;-0.90;100.00;100615.91;4888248;29;20071;-80
2021/12/07 09:57:33;;;;;;;34.53;17.33;;;;;;;-0.88;100.00;100609.91;4881765;29;20068;-81
2021/12/07 10:00:00;;;;;;;31.00;15.03;;;;;;;-0.77;100.00;100601.50;4881116;29;20052;-80
2021/12/07 10:02:26;;;;;;;33.07;16.97;;;;;;;-0.69;100.00;100607.75;4896385;29;20043;-80
2021/12/07 10:04:53;;;;;;;35.00;16.80;;;;;;;-0.63;100.00;100602.72;4897100;29;20044;-80
2021/12/07 10:07:20;;;;;;;34.03;18.07;;;;;;;-0.63;100.00;100607.91;4913177;29;20057;-81
2021/12/07 10:09:47;;;;;;;37.53;20.97;;;;;;;-0.69;100.00;100621.59;4884992;29;20052;-81
2021/12/07 10:12:20;;;;;;;33.03;16.63;;;;;;;-0.59;100.00;100614.91;4890971;29;20051;-79
2021/12/07 10:14:47;;;;;;;32.53;17.73;;;;;;;-0.54;100.00;100620.22;4880647;29;20048;-80
2021/12/07 10:17:20;;;;;;;33.77;17.50;;;;;;;-0.51;100.00;100609.91;4904101;29;20751;-81
2021/12/07 10:19:48;;;;;;;30.87;16.27;;;;;;;-0.57;100.00;100608.06;4888423;29;20103;-80
2021/12/07 10:22:21;;;;;;;35.53;17.67;;;;;;;-0.51;100.00;100605.59;4888741;29;20045;-80
2021/12/07 10:24:50;;;;;;;31.77;17.90;;;;;;;-0.51;100.00;100609.91;4894568;29;20080;-80
2021/12/07 10:27:35;;;;;;;30.97;16.07;;;;;;;-0.53;100.00;100606.41;4903303;29;20131;-81
2021/12/07 10:30:09;;;;;;;;;;;;;;;-0.61;100.00;100598.44;4897534;29;20071;-79
2021/12/07 10:32:40;;;;;;;34.77;17.53;;;;;;;-0.61;100.00;100603.63;4881865;29;19923;-80
2021/12/07 10:35:30;;;;;;;37.30;17.70;;;;;;;-0.55;100.00;100596.00;4922513;29;20046;-80
2021/12/07 10:38:10;;;;;;;36.33;18.83;;;;;;;-0.64;100.00;100590.59;4886968;29;20036;-80
2021/12/07 10:40:54;;;;;;;38.47;18.27;;;;;;;-0.57;100.00;100584.72;4907306;29;22248;-80
2021/12/07 10:43:39;;;;;;;32.90;17.23;;;;;;;-0.59;100.00;100586.38;4906061;29;20465;-80
2021/12/07 10:46:30;;;;;;;36.63;19.00;;;;;;;-0.43;100.00;100582.41;4893152;29;20048;-80
2021/12/07 10:49:19;;;;;;;38.03;19.03;;;;;;;-0.39;100.00;100571.28;4912808;29;20051;-80
2021/12/07 10:52:07;;;;;;;46.87;29.73;;;;;;;-0.32;100.00;100565.38;4913532;29;20048;-80
2021/12/07 10:55:06;;;;;;;39.77;20.33;;;;;;;-0.27;100.00;100563.75;4914249;29;20193;-80
2021/12/07 10:57:39;;;;;;;37.23;18.03;;;;;;;-0.39;100.00;100560.91;4899601;29;20777;-79
2021/12/07 11:00:11;;;;;;;39.25;21.02;;;;;;;-0.47;100.00;100557.25;4913822;29;20044;-80
2021/12/07 11:02:39;;;;;;;34.53;18.67;;;;;;;-0.52;100.00;100551.06;4925877;29;20043;-81
2021/12/07 11:05:10;;;;;;;38.73;18.83;;;;;;;-0.63;100.00;100550.84;4909692;29;20079;-80
2021/12/07 11:07:37;;;;;;;35.40;18.03;;;;;;;-0.74;100.00;100550.59;4913800;23;20112;-83
2021/12/07 11:10:16;;;;;;;39.50;20.23;;;;;;;-0.70;100.00;100552.41;4902376;29;20497;-84
2021/12/07 11:12:53;;;;;;;53.30;26.57;;;;;;;-0.66;100.00;100545.59;4885421;29;20051;-83
2021/12/07 11:15:26;;;;;;;31.33;18.23;;;;;;;-0.57;100.00;100556.19;4883554;29;20047;-84
2021/12/07 11:17:57;;;;;;;48.30;26.30;;;;;;;-0.48;100.00;100542.53;4885282;29;20035;-82
2021/12/07 11:20:26;;;;;;;38.07;18.17;;;;;;;-0.66;100.00;100549.06;4878930;29;20100;-83
2021/12/07 11:23:06;;;;;;;43.77;21.03;;;;;;;-0.68;100.00;100555.91;4884285;29;20051;-83
2021/12/07 11:29:39;;;;;;;41.80;19.03;;;;;;;-0.60;100.00;100550.91;4883606;29;20048;-83
2021/12/07 11:31:50;;;;;;;38.40;17.70;;;;;;;-0.49;100.00;100556.34;4902594;29;20054;-83
2021/12/07 11:34:23;;;;;;;40.87;19.37;;;;;;;-0.52;100.00;100546.75;4922503;29;20048;-83
2021/12/07 11:36:50;;;;;;;40.80;19.43;;;;;;;-0.49;100.00;100556.34;4884957;29;20039;-84
2021/12/07 11:39:25;;;;;;;38.90;18.73;;;;;;;-0.51;100.00;100568.38;4870353;29;20036;-83
2021/12/07 11:41:57;;;;;;;38.97;19.03;;;;;;;-0.48;100.00;100558.97;4881959;29;20043;-83
2021/12/07 11:44:24;;;;;;;35.40;17.40;;;;;;;-0.44;100.00;100562.50;4913521;29;20631;-85
2021/12/07 11:46:52;;;;;;;37.80;19.73;;;;;;;-0.34;100.00;100562.75;4900377;29;20107;-83
2021/12/07 11:49:30;;;;;;;40.30;19.57;;;;;;;-0.37;100.00;100562.69;4885543;29;20043;-83
2021/12/07 11:52:01;;;;;;;42.03;19.40;;;;;;;-0.38;100.00;100552.25;4898829;29;20048;-85
2021/12/07 11:54:34;;;;;;;40.87;21.00;;;;;;;-0.36;100.00;100556.63;4881991;29;20051;-82
2021/12/07 11:57:02;;;;;;;45.77;22.80;;;;;;;-0.34;100.00;100554.97;4913968;29;20059;-86
2021/12/07 11:59:29;;;;;;;53.60;30.77;;;;;;;-0.35;100.00;100542.81;4899424;29;20043;-84
2021/12/07 12:01:55;;;;;;;43.30;23.00;;;;;;;-0.43;100.00;100551.28;4879500;29;20040;-85
2021/12/07 12:04:23;;;;;;;38.37;19.90;;;;;;;-0.41;100.00;100541.84;4926385;29;20054;-85
2021/12/07 12:06:52;;;;;;;39.00;18.60;;;;;;;-0.47;100.00;100552.06;4911121;29;20056;-85
2021/12/07 12:09:20;;;;;;;40.90;20.17;;;;;;;-0.41;100.00;100549.63;4881760;29;20658;-85
2021/12/07 12:11:54;;;;;;;40.70;19.53;;;;;;;-0.31;100.00;100551.56;4883210;29;20051;-86
2021/12/07 12:14:44;;;;;;;46.97;21.35;;;;;;;-0.31;100.00;100547.25;4896704;29;20052;-86
2021/12/07 12:17:21;;;;;;;40.67;21.83;;;;;;;-0.25;100.00;100550.78;4875801;29;20048;-85
2021/12/07 12:20:26;;;;;;;39.63;19.87;;;;;;;-0.22;100.00;100550.88;4897438;29;20040;-83
2021/12/07 12:23:19;;;;;;;46.27;23.77;;;;;;;-0.46;100.00;100536.53;4901176;29;20044;-84
2021/12/07 12:25:55;;;;;;;41.03;19.07;;;;;;;-0.23;100.00;100534.44;4908986;29;20444;-85
2021/12/07 12:28:32;;;;;;;40.90;20.17;;;;;;;-0.21;100.00;100531.84;4895488;29;20044;-85
2021/12/07 12:30:59;;;;;;;43.17;20.07;;;;;;;-0.34;100.00;100529.03;4887403;29;20043;-85
2021/12/07 12:33:43;;;;;;;45.13;21.97;;;;;;;-0.43;100.00;100535.69;4915853;29;20575;-85
2021/12/07 12:36:10;;;;;;;42.10;20.52;;;;;;;-0.40;100.00;100528.00;4902197;29;20455;-86
2021/12/07 12:38:48;;;;;;;44.17;23.30;;;;;;;-0.34;100.00;100520.31;4879096;29;20142;-83
2021/12/07 12:41:16;;;;;;;47.93;23.33;;;;;;;-0.31;100.00;100525.59;4930663;29;20059;-85
2021/12/07 12:43:53;;;;;;;42.70;21.20;;;;;;;-0.41;100.00;100526.25;4890346;29;20145;-85
2021/12/07 12:46:33;;;;;;;55.73;29.87;;;;;;;-0.49;100.00;100531.28;4880809;29;20049;-84
2021/12/07 12:49:03;;;;;;;54.83;26.40;;;;;;;-0.41;100.00;100524.53;4894804;29;20072;-86
2021/12/07 12:51:32;;;;;;;50.13;25.97;;;;;;;-0.26;100.00;100523.97;4915441;29;20044;-84
2021/12/07 12:53:59;;;;;;;47.13;22.47;;;;;;;-0.26;100.00;100510.97;4901886;29;20048;-86
2021/12/07 12:56:30;;;;;;;61.07;29.03;;;;;;;-0.24;100.00;100521.41;4887106;29;20062;-87